Time,TemperatureF,DewpointF,PressureIn,WindDirection,WindDirectionDegrees,WindSpeedMPH,WindSpeedGustMPH,Humidity,HourlyPrecipIn,Conditions,Clouds,dailyrainin,SoftwareType,DateUTC
2013-06-17 00:02:00,71.0,66.0,-100.00,South,187,0.0,12.0,90,0.00,,,-99.99,,2013-06-17 04:02:00,
2013-06-17 00:12:00,71.0,66.0,-100.00,South,172,0.0,12.0,89,0.00,,,-99.99,,2013-06-17 04:12:00,
2013-06-17 00:22:00,71.0,68.0,-100.00,East,97,0.0,12.0,90,0.00,,,-99.99,,2013-06-17 04:22:00,
2013-06-17 00:34:00,71.0,68.0,-100.00,ESE,114,0.0,12.0,91,0.00,,,-99.99,,2013-06-17 04:34:00,
2013-06-17 00:43:00,70.0,66.0,-100.00,East,84,0.0,12.0,91,0.00,,,-99.99,,2013-06-17 04:43:00,
2013-06-17 00:53:00,70.0,66.0,-100.00,WSW,244,0.0,12.0,93,0.00,,,-99.99,,2013-06-17 04:53:00,
2013-06-17 01:02:00,70.0,68.0,-100.00,SSE,148,0.0,12.0,93,0.00,,,-99.99,,2013-06-17 05:02:00,
2013-06-17 01:12:00,71.0,66.0,-100.00,East,93,0.0,12.0,91,0.00,,,-99.99,,2013-06-17 05:12:00,
2013-06-17 01:22:00,70.0,66.0,-100.00,SSW,194,0.0,12.0,91,0.00,,,-99.99,,2013-06-17 05:22:00,
2013-06-17 01:33:00,70.0,66.0,-100.00,ESE,114,0.0,12.0,93,0.00,,,-99.99,,2013-06-17 05:33:00,
2013-06-17 01:44:00,70.0,66.0,-100.00,ESE,114,0.0,12.0,93,0.00,,,-99.99,,2013-06-17 05:44:00,
2013-06-17 01:53:00,70.0,66.0,-100.00,ESE,114,0.0,12.0,93,0.00,,,-99.99,,2013-06-17 05:53:00,
2013-06-17 02:02:00,68.0,64.0,-100.00,SSW,197,0.0,12.0,91,0.00,,,-99.99,,2013-06-17 06:02:00,
2013-06-17 02:12:00,68.0,64.0,-100.00,SSW,208,1.0,12.0,91,0.00,,,-99.99,,2013-06-17 06:12:00,
2013-06-17 02:22:00,68.0,64.0,-100.00,SSE,166,0.0,12.0,90,0.00,,,-99.99,,2013-06-17 06:22:00,
2013-06-17 02:33:00,67.0,64.0,-100.00,WSW,255,0.0,12.0,91,0.00,,,-99.99,,2013-06-17 06:33:00,
2013-06-17 02:43:00,68.0,64.0,-100.00,North,5,0.0,12.0,91,0.00,,,-99.99,,2013-06-17 06:43:00,
2013-06-17 02:53:00,68.0,64.0,-100.00,WNW,296,0.0,12.0,91,0.00,,,-99.99,,2013-06-17 06:53:00,
2013-06-17 03:02:00,68.0,64.0,-100.00,NW,307,0.0,12.0,90,0.00,,,-99.99,,2013-06-17 07:02:00,
2013-06-17 03:12:00,68.0,64.0,-100.00,NW,314,0.0,12.0,90,0.00,,,-99.99,,2013-06-17 07:12:00,
2013-06-17 03:22:00,68.0,64.0,-100.00,North,355,1.0,12.0,90,0.00,,,-99.99,,2013-06-17 07:22:00,
2013-06-17 03:33:00,68.0,64.0,-100.00,NW,310,0.0,12.0,90,0.00,,,-99.99,,2013-06-17 07:33:00,
2013-06-17 03:43:00,68.0,64.0,-100.00,West,280,0.0,12.0,91,0.00,,,-99.99,,2013-06-17 07:43:00,
2013-06-17 03:53:00,67.0,64.0,-100.00,SSW,207,0.0,12.0,91,0.00,,,-99.99,,2013-06-17 07:53:00,
2013-06-17 04:02:00,67.0,63.0,-100.00,West,262,0.0,0.0,91,0.00,,,-99.99,,2013-06-17 08:02:00,
2013-06-17 04:12:00,69.0,66.0,-100.00,SW,216,0.0,0.0,93,0.00,,,-99.99,,2013-06-17 08:12:00,
2013-06-17 04:22:00,66.0,63.0,-100.00,SW,223,0.0,0.0,93,0.00,,,-99.99,,2013-06-17 08:22:00,
2013-06-17 04:34:00,67.0,64.0,-100.00,South,187,0.0,0.0,93,0.00,,,-99.99,,2013-06-17 08:34:00,
2013-06-17 04:43:00,66.0,63.0,-100.00,SSE,156,0.0,0.0,93,0.00,,,-99.99,,2013-06-17 08:43:00,
2013-06-17 04:53:00,65.0,63.0,-100.00,NNW,340,0.0,0.0,93,0.00,,,-99.99,,2013-06-17 08:53:00,
2013-06-17 05:02:00,65.0,63.0,-100.00,SSE,152,0.0,0.0,94,0.00,,,-99.99,,2013-06-17 09:02:00,
2013-06-17 05:12:00,64.0,61.0,-100.00,SE,124,0.0,0.0,94,0.00,,,-99.99,,2013-06-17 09:12:00,
2013-06-17 05:22:00,65.0,63.0,-100.00,SSW,197,0.0,0.0,94,0.00,,,-99.99,,2013-06-17 09:22:00,
2013-06-17 05:34:00,65.0,63.0,-100.00,South,190,0.0,0.0,94,0.00,,,-99.99,,2013-06-17 09:34:00,
2013-06-17 05:43:00,65.0,63.0,-100.00,SW,221,0.0,0.0,94,0.00,,,-99.99,,2013-06-17 09:43:00,
2013-06-17 05:52:00,65.0,63.0,-100.00,South,186,0.0,0.0,94,0.00,,,-99.99,,2013-06-17 09:52:00,
2013-06-17 06:02:00,65.0,63.0,-100.00,SSW,208,0.0,1.0,94,0.00,,,-99.99,,2013-06-17 10:02:00,
2013-06-17 06:12:00,65.0,63.0,-100.00,North,350,0.0,1.0,94,0.00,,,-99.99,,2013-06-17 10:12:00,
2013-06-17 06:22:00,65.0,63.0,-100.00,South,180,0.0,1.0,94,0.00,,,-99.99,,2013-06-17 10:22:00,
2013-06-17 06:33:00,64.0,61.0,-100.00,NNW,347,0.0,1.0,94,0.00,,,-99.99,,2013-06-17 10:33:00,
2013-06-17 06:43:00,64.0,61.0,-100.00,North,11,0.0,1.0,94,0.00,,,-99.99,,2013-06-17 10:43:00,
2013-06-17 06:53:00,65.0,63.0,-100.00,NNE,19,1.0,1.0,94,0.00,,,-99.99,,2013-06-17 10:53:00,
2013-06-17 07:02:00,64.0,61.0,-100.00,SW,223,1.0,1.0,94,0.00,,,-99.99,,2013-06-17 11:02:00,
2013-06-17 07:12:00,64.0,61.0,-100.00,West,273,1.0,1.0,94,0.00,,,-99.99,,2013-06-17 11:12:00,
2013-06-17 07:23:00,67.0,64.0,-100.00,NNE,31,1.0,1.0,95,0.00,,,-99.99,,2013-06-17 11:23:00,
2013-06-17 07:33:00,65.0,63.0,-100.00,NW,306,0.0,1.0,94,0.00,,,-99.99,,2013-06-17 11:33:00,
2013-06-17 07:43:00,65.0,63.0,-100.00,SE,138,0.0,1.0,93,0.00,,,-99.99,,2013-06-17 11:43:00,
2013-06-17 07:53:00,65.0,63.0,-100.00,NE,53,1.0,1.0,93,0.00,,,-99.99,,2013-06-17 11:53:00,
2013-06-17 08:02:00,66.0,63.0,-100.00,NNE,32,0.0,1.0,91,0.00,,,-99.99,,2013-06-17 12:02:00,
2013-06-17 08:12:00,67.0,64.0,-100.00,North,357,1.0,1.0,90,0.00,,,-99.99,,2013-06-17 12:12:00,
2013-06-17 08:23:00,68.0,64.0,-100.00,West,273,0.0,1.0,90,0.00,,,-99.99,,2013-06-17 12:23:00,
2013-06-17 08:33:00,69.0,64.0,-100.00,NW,324,0.0,1.0,88,0.00,,,-99.99,,2013-06-17 12:33:00,
2013-06-17 08:43:00,69.0,64.0,-100.00,NNE,14,0.0,1.0,86,0.00,,,-99.99,,2013-06-17 12:43:00,
2013-06-17 08:53:00,69.0,64.0,-100.00,WSW,251,0.0,1.0,86,0.00,,,-99.99,,2013-06-17 12:53:00,
2013-06-17 09:02:00,70.0,64.0,-100.00,WNW,302,1.0,1.0,86,0.00,,,-99.99,,2013-06-17 13:02:00,
2013-06-17 09:12:00,71.0,64.0,-100.00,North,357,0.0,1.0,82,0.00,,,-99.99,,2013-06-17 13:12:00,
2013-06-17 09:22:00,71.0,64.0,-100.00,NNW,336,0.0,1.0,82,0.00,,,-99.99,,2013-06-17 13:22:00,
2013-06-17 09:32:00,70.0,63.0,-100.00,ENE,59,1.0,2.0,82,0.00,,,-99.99,,2013-06-17 13:32:00,
2013-06-17 09:43:00,73.0,64.0,-100.00,SW,225,0.0,2.0,77,0.00,,,-99.99,,2013-06-17 13:43:00,
2013-06-17 09:52:00,73.0,64.0,-100.00,East,100,0.0,2.0,77,0.00,,,-99.99,,2013-06-17 13:52:00,
2013-06-17 10:02:00,73.0,64.0,-100.00,WNW,282,1.0,2.0,77,0.00,,,-99.99,,2013-06-17 14:02:00,
2013-06-17 10:12:00,74.0,64.0,-100.00,NNE,14,0.0,2.0,75,0.00,,,-99.99,,2013-06-17 14:12:00,
2013-06-17 10:22:00,74.0,64.0,-100.00,South,184,1.0,2.0,75,0.00,,,-99.99,,2013-06-17 14:22:00,
2013-06-17 10:34:00,74.0,64.0,-100.00,West,275,0.0,2.0,77,0.00,,,-99.99,,2013-06-17 14:34:00,
2013-06-17 10:43:00,74.0,64.0,-100.00,NNW,331,1.0,2.0,75,0.00,,,-99.99,,2013-06-17 14:43:00,
2013-06-17 10:53:00,75.0,64.0,-100.00,NNW,334,1.0,2.0,72,0.00,,,-99.99,,2013-06-17 14:53:00,
2013-06-17 11:02:00,76.0,64.0,-100.00,North,357,0.0,2.0,71,0.00,,,-99.99,,2013-06-17 15:02:00,
2013-06-17 11:12:00,76.0,64.0,-100.00,NE,43,1.0,2.0,71,0.00,,,-99.99,,2013-06-17 15:12:00,
2013-06-17 11:22:00,76.0,64.0,-100.00,WNW,283,1.0,2.0,68,0.00,,,-99.99,,2013-06-17 15:22:00,
2013-06-17 11:33:00,76.0,64.0,-100.00,SSE,166,1.0,2.0,67,0.00,,,-99.99,,2013-06-17 15:33:00,
2013-06-17 11:43:00,78.0,63.0,-100.00,NNW,327,1.0,2.0,63,0.00,,,-99.99,,2013-06-17 15:43:00,
2013-06-17 11:52:00,78.0,63.0,-100.00,NNW,327,1.0,2.0,63,0.00,,,-99.99,,2013-06-17 15:52:00,
2013-06-17 12:02:00,78.0,57.0,-100.00,North,360,2.0,2.0,51,0.00,,,-99.99,,2013-06-17 16:02:00,
2013-06-17 12:12:00,80.0,59.0,-100.00,WNW,288,1.0,2.0,51,0.00,,,-99.99,,2013-06-17 16:12:00,
2013-06-17 12:22:00,80.0,57.0,-100.00,WNW,300,1.0,2.0,49,0.00,,,-99.99,,2013-06-17 16:22:00,
2013-06-17 12:33:00,81.0,61.0,-100.00,SW,224,1.0,2.0,54,0.00,,,-99.99,,2013-06-17 16:33:00,
2013-06-17 12:43:00,81.0,61.0,-100.00,SSW,192,1.0,2.0,54,0.00,,,-99.99,,2013-06-17 16:43:00,
2013-06-17 12:53:00,80.0,61.0,-100.00,SW,218,2.0,4.0,55,0.00,,,-99.99,,2013-06-17 16:53:00,
2013-06-17 13:02:00,80.0,57.0,-100.00,SW,231,2.0,4.0,47,0.00,,,-99.99,,2013-06-17 17:02:00,
2013-06-17 13:12:00,80.0,57.0,-100.00,WSW,244,3.0,4.0,49,0.00,,,-99.99,,2013-06-17 17:12:00,
2013-06-17 13:22:00,82.0,61.0,-100.00,NNW,336,3.0,4.0,49,0.00,,,-99.99,,2013-06-17 17:22:00,
2013-06-17 13:33:00,81.0,59.0,-100.00,North,4,2.0,4.0,49,0.00,,,-99.99,,2013-06-17 17:33:00,
2013-06-17 13:43:00,83.0,59.0,-100.00,SSW,197,1.0,4.0,46,0.00,,,-99.99,,2013-06-17 17:43:00,
2013-06-17 13:52:00,83.0,57.0,-100.00,SSE,155,2.0,4.0,44,0.00,,,-99.99,,2013-06-17 17:52:00,
2013-06-17 14:02:00,84.0,59.0,-100.00,WSW,237,3.0,4.0,45,0.00,,,-99.99,,2013-06-17 18:02:00,
2013-06-17 14:12:00,83.0,54.0,-100.00,WSW,254,1.0,4.0,38,0.00,,,-99.99,,2013-06-17 18:12:00,
2013-06-17 14:23:00,83.0,55.0,-100.00,WSW,244,3.0,6.0,41,0.00,,,-99.99,,2013-06-17 18:23:00,
2013-06-17 14:33:00,83.0,55.0,-100.00,WSW,242,2.0,6.0,40,0.00,,,-99.99,,2013-06-17 18:33:00,
2013-06-17 14:43:00,83.0,55.0,-100.00,West,275,2.0,6.0,40,0.00,,,-99.99,,2013-06-17 18:43:00,
2013-06-17 14:53:00,85.0,57.0,-100.00,WSW,249,2.0,6.0,40,0.00,,,-99.99,,2013-06-17 18:53:00,
2013-06-17 15:02:00,85.0,57.0,-100.00,WSW,249,2.0,6.0,40,0.00,,,-99.99,,2013-06-17 19:02:00,
2013-06-17 15:12:00,84.0,55.0,-100.00,West,279,3.0,6.0,38,0.00,,,-99.99,,2013-06-17 19:12:00,
2013-06-17 15:22:00,85.0,54.0,-100.00,SW,234,3.0,6.0,37,0.00,,,-99.99,,2013-06-17 19:22:00,
2013-06-17 15:33:00,83.0,55.0,-100.00,WNW,290,2.0,6.0,40,0.00,,,-99.99,,2013-06-17 19:33:00,
2013-06-17 15:43:00,84.0,57.0,-100.00,WSW,254,1.0,6.0,40,0.00,,,-99.99,,2013-06-17 19:43:00,
2013-06-17 15:53:00,83.0,54.0,-100.00,SW,227,2.0,6.0,38,0.00,,,-99.99,,2013-06-17 19:53:00,
2013-06-17 16:02:00,83.0,54.0,-100.00,SW,227,2.0,6.0,38,0.00,,,-99.99,,2013-06-17 20:02:00,
2013-06-17 16:11:00,84.0,57.0,-100.00,SW,227,1.0,6.0,42,0.00,,,-99.99,,2013-06-17 20:11:00,
2013-06-17 16:22:00,84.0,57.0,-100.00,West,273,2.0,6.0,41,0.00,,,-99.99,,2013-06-17 20:22:00,
2013-06-17 16:34:00,83.0,57.0,-100.00,SSW,211,2.0,6.0,42,0.00,,,-99.99,,2013-06-17 20:34:00,
2013-06-17 16:43:00,76.0,57.0,-100.00,NNE,32,7.0,12.0,53,0.00,,,-99.99,,2013-06-17 20:43:00,
2013-06-17 16:52:00,76.0,57.0,-100.00,NE,42,9.0,12.0,54,0.00,,,-99.99,,2013-06-17 20:52:00,
2013-06-17 17:01:00,76.0,57.0,-100.00,NE,42,9.0,12.0,54,0.00,,,-99.99,,2013-06-17 21:01:00,
2013-06-17 17:12:00,75.0,57.0,-100.00,NE,42,11.0,14.0,55,0.00,,,-99.99,,2013-06-17 21:12:00,
2013-06-17 17:22:00,75.0,59.0,-100.00,ENE,77,7.0,14.0,60,0.00,,,-99.99,,2013-06-17 21:22:00,
2013-06-17 17:33:00,75.0,59.0,-100.00,ENE,77,7.0,14.0,60,0.00,,,-99.99,,2013-06-17 21:33:00,
2013-06-17 17:43:00,70.0,61.0,-100.00,WNW,293,3.0,14.0,75,31.18,,,-99.99,,2013-06-17 21:43:00,
2013-06-17 17:52:00,68.0,61.0,-100.00,West,262,4.0,14.0,80,-99.99,,,-99.99,,2013-06-17 21:52:00,
2013-06-17 18:01:00,67.0,63.0,-100.00,West,265,1.0,14.0,89,0.00,,,-99.99,,2013-06-17 22:01:00,
2013-06-17 18:11:00,67.0,63.0,-100.00,NE,49,1.0,14.0,89,1.14,,,-99.99,,2013-06-17 22:11:00,
2013-06-17 18:22:00,70.0,66.0,-100.00,South,189,1.0,14.0,88,0.00,,,-99.99,,2013-06-17 22:22:00,
2013-06-17 18:34:00,69.0,63.0,-100.00,SE,142,0.0,14.0,86,0.00,,,-99.99,,2013-06-17 22:34:00,
2013-06-17 18:43:00,69.0,63.0,-100.00,ESE,107,0.0,14.0,81,0.00,,,-99.99,,2013-06-17 22:43:00,
2013-06-17 18:53:00,69.0,63.0,-100.00,South,172,0.0,14.0,85,0.00,,,-99.99,,2013-06-17 22:53:00,
2013-06-17 19:02:00,68.0,63.0,-100.00,SW,217,1.0,14.0,84,0.00,,,-99.99,,2013-06-17 23:02:00,
2013-06-17 19:11:00,69.0,63.0,-100.00,South,187,0.0,14.0,86,0.00,,,-99.99,,2013-06-17 23:11:00,
2013-06-17 19:22:00,69.0,63.0,-100.00,SSW,192,0.0,14.0,85,0.00,,,-99.99,,2013-06-17 23:22:00,
2013-06-17 19:33:00,70.0,63.0,-100.00,SSW,193,1.0,14.0,82,0.00,,,-99.99,,2013-06-17 23:33:00,
2013-06-17 19:42:00,71.0,64.0,-100.00,North,358,1.0,14.0,84,0.00,,,-99.99,,2013-06-17 23:42:00,
2013-06-17 19:53:00,70.0,64.0,-100.00,North,11,0.0,14.0,84,0.00,,,-99.99,,2013-06-17 23:53:00,
2013-06-17 20:01:00,71.0,64.0,-100.00,West,261,0.0,14.0,82,0.00,,,-99.99,,2013-06-18 00:01:00,
2013-06-17 20:12:00,72.0,64.0,-100.00,NNE,14,0.0,14.0,82,0.00,,,-99.99,,2013-06-18 00:12:00,
2013-06-17 20:22:00,71.0,64.0,-100.00,NNE,24,0.0,14.0,81,0.00,,,-99.99,,2013-06-18 00:22:00,
2013-06-17 20:33:00,70.0,63.0,-100.00,WSW,254,0.0,14.0,82,0.00,,,-99.99,,2013-06-18 00:33:00,
2013-06-17 20:43:00,70.0,64.0,-100.00,South,187,1.0,14.0,85,0.00,,,-99.99,,2013-06-18 00:43:00,
2013-06-17 20:52:00,69.0,64.0,-100.00,South,186,0.0,14.0,88,0.00,,,-99.99,,2013-06-18 00:52:00,
2013-06-17 21:01:00,69.0,64.0,-100.00,South,190,0.0,14.0,86,0.00,,,-99.99,,2013-06-18 01:01:00,
2013-06-17 21:12:00,68.0,64.0,-100.00,South,186,0.0,14.0,89,0.00,,,-99.99,,2013-06-18 01:12:00,
2013-06-17 21:23:00,68.0,64.0,-100.00,South,179,0.0,14.0,89,0.00,,,-99.99,,2013-06-18 01:23:00,
2013-06-17 21:34:00,67.0,64.0,-100.00,South,190,0.0,14.0,90,0.00,,,-99.99,,2013-06-18 01:34:00,
2013-06-17 21:44:00,67.0,64.0,-100.00,ESE,114,0.0,14.0,90,0.00,,,-99.99,,2013-06-18 01:44:00,
2013-06-17 21:53:00,67.0,63.0,-100.00,West,278,0.0,14.0,90,0.00,,,-99.99,,2013-06-18 01:53:00,
2013-06-17 22:02:00,67.0,63.0,-100.00,SW,214,0.0,14.0,91,0.00,,,-99.99,,2013-06-18 02:02:00,
2013-06-17 22:11:00,67.0,63.0,-100.00,SW,214,0.0,14.0,91,0.00,,,-99.99,,2013-06-18 02:11:00,
2013-06-17 22:22:00,66.0,63.0,-100.00,SSW,192,0.0,14.0,91,0.00,,,-99.99,,2013-06-18 02:22:00,
2013-06-17 22:34:00,66.0,63.0,-100.00,SSE,168,0.0,14.0,91,0.00,,,-99.99,,2013-06-18 02:34:00,
2013-06-17 22:43:00,66.0,63.0,-100.00,SSE,159,0.0,14.0,91,0.00,,,-99.99,,2013-06-18 02:43:00,
2013-06-17 22:53:00,66.0,63.0,-100.00,SSE,163,0.0,14.0,93,0.00,,,-99.99,,2013-06-18 02:53:00,
2013-06-17 23:02:00,65.0,63.0,-100.00,SE,142,0.0,14.0,93,0.00,,,-99.99,,2013-06-18 03:02:00,
2013-06-17 23:12:00,66.0,63.0,-100.00,South,170,0.0,14.0,93,0.00,,,-99.99,,2013-06-18 03:12:00,
2013-06-17 23:23:00,66.0,63.0,-100.00,SSE,153,0.0,14.0,93,0.00,,,-99.99,,2013-06-18 03:23:00,
2013-06-17 23:34:00,65.0,63.0,-100.00,South,182,0.0,14.0,93,0.00,,,-99.99,,2013-06-18 03:34:00,
2013-06-17 23:43:00,65.0,63.0,-100.00,SE,131,0.0,14.0,94,0.00,,,-99.99,,2013-06-18 03:43:00,
2013-06-17 23:53:00,65.0,63.0,-100.00,East,101,0.0,14.0,94,0.00,,,-99.99,,2013-06-18 03:53:00,